createdAt,value
2018-12-17T00:02:19.365Z,36.93
2018-12-17T00:05:24.498Z,39.07
2018-12-17T00:08:32.143Z,39.60
2018-12-17T00:11:34.906Z,40.23
2018-12-17T00:14:37.858Z,35.63
2018-12-17T00:17:40.809Z,40.50
2018-12-17T00:20:44.935Z,44.53
2018-12-17T00:23:47.907Z,42.87
2018-12-17T00:26:51.127Z,42.23
2018-12-17T00:29:55.098Z,39.17
2018-12-17T00:32:58.050Z,40.40
2018-12-17T00:36:01.030Z,42.50
2018-12-17T00:39:06.354Z,37.27
2018-12-17T00:42:10.466Z,44.37
2018-12-17T00:45:13.569Z,42.77
2018-12-17T00:48:16.773Z,41.20
2018-12-17T00:51:20.278Z,39.77
2018-12-17T00:54:23.478Z,43.67
2018-12-17T00:57:26.421Z,40.43
2018-12-17T01:00:29.382Z,45.73
2018-12-17T01:03:32.365Z,40.30
2018-12-17T01:06:35.604Z,41.97
2018-12-17T01:09:38.571Z,41.17
2018-12-17T01:12:41.541Z,41.17
2018-12-17T01:15:44.522Z,41.47
2018-12-17T01:18:47.647Z,42.40
2018-12-17T01:21:50.746Z,41.17
2018-12-17T01:24:53.734Z,43.50
2018-12-17T01:27:56.697Z,49.63
2018-12-17T01:30:59.646Z,42.30
2018-12-17T01:34:02.623Z,39.20
2018-12-17T01:37:05.578Z,45.47
2018-12-17T01:40:08.681Z,46.57
2018-12-17T01:43:12.621Z,49.77
2018-12-17T01:46:15.593Z,43.17
2018-12-17T01:49:18.546Z,44.00
2018-12-17T01:52:21.506Z,41.77
2018-12-17T01:55:24.454Z,39.57
2018-12-17T01:58:29.363Z,44.03
2018-12-17T02:01:32.562Z,41.87
2018-12-17T02:04:35.701Z,44.00
2018-12-17T02:07:38.655Z,46.30
2018-12-17T02:10:41.754Z,47.73
2018-12-17T02:13:44.974Z,43.67
2018-12-17T02:16:47.958Z,45.73
2018-12-17T02:19:50.938Z,48.50
2018-12-17T02:22:54.207Z,49.90
2018-12-17T02:25:57.157Z,48.47
2018-12-17T02:29:00.394Z,49.93
2018-12-17T02:32:03.389Z,46.27
2018-12-17T02:35:06.758Z,51.17
2018-12-17T02:38:09.711Z,48.93
2018-12-17T02:41:12.690Z,49.17
2018-12-17T02:44:16.813Z,54.53
2018-12-17T02:47:19.919Z,49.97
2018-12-17T02:50:22.895Z,53.10
2018-12-17T02:53:26.670Z,50.73
2018-12-17T02:56:29.635Z,60.57
2018-12-17T02:59:32.731Z,51.63
2018-12-17T03:02:35.684Z,54.63
2018-12-17T03:05:38.779Z,49.43
2018-12-17T03:08:41.741Z,50.43
2018-12-17T03:11:44.745Z,52.97
2018-12-17T03:14:47.782Z,46.97
2018-12-17T03:17:51.238Z,47.73
2018-12-17T03:20:54.168Z,53.37
2018-12-17T03:23:57.155Z,53.50
2018-12-17T03:27:00.110Z,50.17
2018-12-17T03:30:04.007Z,52.37
2018-12-17T03:33:06.968Z,52.93
2018-12-17T03:39:41.975Z,49.77
2018-12-17T03:42:44.962Z,52.13
2018-12-17T03:45:47.923Z,53.10
2018-12-17T03:48:50.866Z,55.27
2018-12-17T03:51:54.009Z,54.73
2018-12-17T03:54:57.202Z,55.67
2018-12-17T03:58:00.400Z,57.67
2018-12-17T04:01:03.592Z,61.43
2018-12-17T04:04:06.788Z,55.00
2018-12-17T04:07:09.982Z,49.30
2018-12-17T04:10:13.283Z,54.77
2018-12-17T04:13:16.481Z,57.47
2018-12-17T04:16:19.670Z,54.97
2018-12-17T04:19:23.479Z,53.53
2018-12-17T04:22:26.709Z,54.57
2018-12-17T04:25:29.869Z,56.50
2018-12-17T04:28:33.213Z,55.73
2018-12-17T04:31:36.366Z,59.20
2018-12-17T04:34:39.594Z,54.33
2018-12-17T04:37:42.754Z,58.37
2018-12-17T04:40:46.042Z,56.37
2018-12-17T04:43:49.245Z,60.60
2018-12-17T04:46:52.446Z,58.53
2018-12-17T04:49:55.635Z,58.37
2018-12-17T04:52:58.833Z,57.57
2018-12-17T04:56:02.001Z,55.90
2018-12-17T04:59:05.222Z,57.50
2018-12-17T05:02:08.419Z,54.37
2018-12-17T05:05:11.609Z,57.47
2018-12-17T05:08:14.910Z,47.67
2018-12-17T05:11:18.103Z,53.10
2018-12-17T05:14:21.301Z,56.80
2018-12-17T05:17:24.597Z,57.10
2018-12-17T05:20:27.794Z,50.73
2018-12-17T05:23:30.985Z,51.63
2018-12-17T05:26:34.158Z,57.10
2018-12-17T05:29:37.385Z,55.27
2018-12-17T05:32:40.571Z,47.73
2018-12-17T05:35:43.765Z,57.07
2018-12-17T05:38:46.965Z,55.90
2018-12-17T05:41:50.157Z,55.93
2018-12-17T05:44:53.350Z,57.93
2018-12-17T05:47:56.650Z,55.77
2018-12-17T05:50:59.842Z,58.13
2018-12-17T05:54:03.038Z,56.03
2018-12-17T05:57:06.337Z,58.17
2018-12-17T06:00:09.579Z,58.80
2018-12-17T06:03:12.831Z,59.97
2018-12-17T06:06:16.233Z,55.77
2018-12-17T06:09:19.770Z,55.43
2018-12-17T06:12:22.927Z,57.50
2018-12-17T06:15:26.122Z,59.50
2018-12-17T06:18:29.421Z,61.00
2018-12-17T06:21:32.610Z,58.47
2018-12-17T06:24:35.808Z,59.10
2018-12-17T06:27:39.083Z,51.70
2018-12-17T06:30:42.302Z,56.30
2018-12-17T06:33:45.500Z,58.83
2018-12-17T06:36:48.672Z,54.40
2018-12-17T06:39:51.894Z,53.47
2018-12-17T06:42:55.063Z,52.73
2018-12-17T06:45:58.278Z,58.77
2018-12-17T06:49:01.471Z,58.70
2018-12-17T06:52:04.702Z,61.43
2018-12-17T06:55:07.966Z,54.20
2018-12-17T06:58:11.506Z,73.57
2018-12-17T07:01:14.662Z,61.90
2018-12-17T07:04:17.861Z,56.90
2018-12-17T07:07:21.054Z,62.47
2018-12-17T07:10:24.249Z,61.80
2018-12-17T07:13:27.546Z,67.47
2018-12-17T07:16:30.765Z,60.07
2018-12-17T07:19:33.968Z,56.50
2018-12-17T07:22:37.134Z,56.77
2018-12-17T07:25:40.475Z,55.33
2018-12-17T07:28:43.628Z,56.60
2018-12-17T07:31:46.845Z,59.13
2018-12-17T07:34:50.366Z,57.50
2018-12-17T07:37:53.669Z,56.77
2018-12-17T07:40:56.810Z,60.63
2018-12-17T07:44:00.049Z,63.40
2018-12-17T07:47:03.205Z,59.53
2018-12-17T07:50:07.039Z,53.47
2018-12-17T07:53:10.326Z,60.40
2018-12-17T07:56:13.535Z,54.77
2018-12-17T07:59:16.702Z,50.03
2018-12-17T08:02:20.855Z,62.53
2018-12-17T08:05:24.029Z,58.97
2018-12-17T08:08:27.239Z,59.63
2018-12-17T08:11:30.406Z,53.10
2018-12-17T08:14:33.742Z,56.07
2018-12-17T08:17:36.897Z,62.27
2018-12-17T08:20:40.133Z,54.27
2018-12-17T08:23:43.730Z,57.90
2018-12-17T08:26:46.922Z,54.57
2018-12-17T08:29:50.541Z,58.73
2018-12-17T08:32:54.045Z,56.27
2018-12-17T08:35:57.198Z,67.00
2018-12-17T08:39:00.422Z,56.57
2018-12-17T08:42:04.149Z,66.60
2018-12-17T08:45:07.566Z,57.97
2018-12-17T08:48:11.302Z,62.77
2018-12-17T08:51:14.734Z,59.40
2018-12-17T08:54:18.005Z,60.03
2018-12-17T08:57:21.233Z,60.60
2018-12-17T09:00:24.390Z,62.60
2018-12-17T09:03:27.618Z,59.93
2018-12-17T09:06:30.814Z,59.03
2018-12-17T09:09:35.756Z,54.07
2018-12-17T09:12:39.238Z,73.70
2018-12-17T09:15:42.445Z,65.60
2018-12-17T09:18:45.714Z,58.53
2018-12-17T09:21:48.954Z,56.90
2018-12-17T09:24:52.104Z,56.43
2018-12-17T09:27:55.622Z,53.97
2018-12-17T09:30:58.798Z,55.57
2018-12-17T09:34:02.350Z,56.63
2018-12-17T09:37:05.497Z,57.33
2018-12-17T09:40:08.889Z,54.00
2018-12-17T09:43:12.093Z,57.63
2018-12-17T09:46:15.482Z,60.73
2018-12-17T09:49:30.963Z,60.47
2018-12-17T09:52:34.243Z,58.63
2018-12-17T09:55:37.411Z,57.90
2018-12-17T09:58:40.670Z,57.63
2018-12-17T10:01:43.903Z,55.20
2018-12-17T10:04:47.119Z,59.90
2018-12-17T10:07:50.389Z,58.30
2018-12-17T10:10:53.943Z,62.23
2018-12-17T10:13:57.186Z,56.73
2018-12-17T10:17:01.129Z,53.37
2018-12-17T10:20:04.812Z,60.40
2018-12-17T10:23:08.451Z,71.07
2018-12-17T10:26:11.852Z,60.20
2018-12-17T10:29:15.045Z,62.30
2018-12-17T10:32:18.195Z,57.20
2018-12-17T10:35:21.762Z,56.90
2018-12-17T10:38:25.001Z,58.27
2018-12-17T10:41:28.223Z,56.57
2018-12-17T10:44:33.431Z,58.23
2018-12-17T10:47:37.088Z,54.13
2018-12-17T10:50:40.335Z,52.63
2018-12-17T10:53:43.563Z,53.90
2018-12-17T10:56:46.849Z,56.43
2018-12-17T10:59:50.779Z,56.63
2018-12-17T11:02:56.294Z,59.83
2018-12-17T11:06:02.390Z,53.23
2018-12-17T11:09:07.698Z,55.17
2018-12-17T11:12:12.939Z,57.83
2018-12-17T11:15:16.679Z,59.80
2018-12-17T11:18:19.942Z,57.60
2018-12-17T11:21:23.184Z,60.43
2018-12-17T11:24:26.535Z,61.47
2018-12-17T11:27:29.735Z,51.30
2018-12-17T11:30:32.930Z,60.17
2018-12-17T11:33:36.114Z,56.70
2018-12-17T11:36:39.399Z,59.37
2018-12-17T11:39:42.718Z,58.03
2018-12-17T11:42:45.915Z,53.37
2018-12-17T11:45:49.124Z,61.00
2018-12-17T11:48:52.335Z,59.30
2018-12-17T11:51:55.491Z,55.73
2018-12-17T11:54:58.686Z,60.27
2018-12-17T11:58:10.051Z,59.77
2018-12-17T12:01:15.873Z,59.50
2018-12-17T12:04:19.094Z,58.17
2018-12-17T12:07:22.329Z,60.90
2018-12-17T12:10:25.985Z,64.13
2018-12-17T12:13:29.236Z,64.17
2018-12-17T12:16:32.527Z,55.87
2018-12-17T12:19:35.818Z,66.57
2018-12-17T12:22:39.133Z,63.40
2018-12-17T12:25:42.414Z,61.93
2018-12-17T12:28:45.757Z,59.53
2018-12-17T12:31:49.003Z,61.13
2018-12-17T12:34:52.343Z,57.57
2018-12-17T12:37:55.611Z,61.23
2018-12-17T12:40:58.839Z,62.70
2018-12-17T12:44:08.670Z,63.00
2018-12-17T12:47:08.255Z,62.93
2018-12-17T12:50:11.454Z,62.00
2018-12-17T12:53:14.679Z,61.57
2018-12-17T12:56:17.847Z,60.53
2018-12-17T12:59:21.161Z,60.53
2018-12-17T13:02:24.329Z,59.07
2018-12-17T13:05:27.555Z,58.90
2018-12-17T13:08:32.302Z,67.47
2018-12-17T13:11:35.691Z,61.27
2018-12-17T13:14:38.853Z,60.63
2018-12-17T13:17:42.078Z,59.67
2018-12-17T13:20:46.271Z,59.13
2018-12-17T13:23:49.621Z,64.53
2018-12-17T13:26:52.964Z,63.03
2018-12-17T13:29:56.187Z,64.53
2018-12-17T13:32:59.358Z,62.37
2018-12-17T13:36:03.617Z,65.27
2018-12-17T13:39:07.274Z,63.77
2018-12-17T13:42:11.623Z,60.07
2018-12-17T13:45:14.858Z,65.20
2018-12-17T13:48:18.230Z,62.07
2018-12-17T13:51:27.035Z,59.20
2018-12-17T13:54:30.225Z,61.97
2018-12-17T13:57:33.426Z,61.60
2018-12-17T14:00:36.643Z,69.37
2018-12-17T14:03:47.599Z,59.77
2018-12-17T14:06:50.827Z,63.87
2018-12-17T14:09:59.587Z,61.87
2018-12-17T14:13:03.019Z,69.60
2018-12-17T14:16:11.742Z,68.07
2018-12-17T14:19:22.254Z,57.37
2018-12-17T14:22:25.487Z,66.43
2018-12-17T14:25:28.716Z,64.17
2018-12-17T14:28:31.879Z,73.17
2018-12-17T14:31:35.274Z,67.93
2018-12-17T14:34:38.474Z,65.50
2018-12-17T14:37:47.124Z,64.00
2018-12-17T14:40:50.287Z,67.27
2018-12-17T14:43:55.735Z,68.63
2018-12-17T14:46:59.328Z,69.53
2018-12-17T14:50:02.544Z,63.63
2018-12-17T14:53:05.999Z,67.67
2018-12-17T14:56:09.226Z,63.30
2018-12-17T14:59:12.477Z,68.10
2018-12-17T15:02:15.723Z,70.70
2018-12-17T15:05:19.028Z,66.40
2018-12-17T15:08:22.227Z,69.93
2018-12-17T15:11:25.455Z,93.17
2018-12-17T15:14:29.452Z,79.57
2018-12-17T15:17:33.288Z,68.33
2018-12-17T15:20:36.526Z,63.67
2018-12-17T15:23:39.764Z,65.03
2018-12-17T15:26:43.048Z,72.67
2018-12-17T15:29:46.347Z,71.10
2018-12-17T15:32:49.515Z,69.33
2018-12-17T15:35:52.842Z,67.47
2018-12-17T15:38:56.007Z,67.83
2018-12-17T15:41:59.194Z,66.37
2018-12-17T15:45:02.395Z,71.70
2018-12-17T15:48:05.693Z,63.20
2018-12-17T15:51:09.493Z,60.83
2018-12-17T15:54:12.650Z,66.93
2018-12-17T15:57:15.885Z,65.00
2018-12-17T16:00:19.041Z,68.57
2018-12-17T16:03:22.367Z,64.50
2018-12-17T16:06:25.543Z,65.40
2018-12-17T16:09:28.726Z,65.33
2018-12-17T16:12:31.922Z,66.53
2018-12-17T16:15:35.116Z,74.03
2018-12-17T16:18:38.419Z,68.17
2018-12-17T16:21:41.801Z,66.40
2018-12-17T16:24:45.003Z,71.47
2018-12-17T16:27:48.216Z,67.30
2018-12-17T16:30:52.622Z,65.70
2018-12-17T16:33:55.821Z,83.03
2018-12-17T16:36:59.034Z,71.67
2018-12-17T16:40:02.210Z,68.77
2018-12-17T16:43:06.429Z,67.87
2018-12-17T16:46:09.627Z,68.40
2018-12-17T16:49:12.816Z,71.77
2018-12-17T16:52:16.017Z,68.10
2018-12-17T16:55:19.217Z,67.37
2018-12-17T16:58:22.413Z,65.57
2018-12-17T17:01:25.598Z,65.43
2018-12-17T17:04:28.798Z,67.40
2018-12-17T17:07:31.989Z,67.27
2018-12-17T17:10:35.189Z,62.97
2018-12-17T17:13:38.365Z,70.53
2018-12-17T17:16:41.591Z,63.43
2018-12-17T17:19:50.634Z,60.33
2018-12-17T17:22:49.916Z,62.47
2018-12-17T17:25:53.107Z,65.07
2018-12-17T17:28:56.308Z,80.27
2018-12-17T17:31:59.497Z,77.63
2018-12-17T17:35:02.693Z,63.13
2018-12-17T17:38:07.018Z,91.90
2018-12-17T17:41:10.210Z,72.00
2018-12-17T17:44:13.302Z,69.10
2018-12-17T17:47:16.507Z,62.00
2018-12-17T17:50:19.693Z,69.57
2018-12-17T17:53:22.989Z,94.57
2018-12-17T17:56:26.293Z,108.03
2018-12-17T17:59:29.482Z,104.53
2018-12-17T18:02:32.677Z,65.47
2018-12-17T18:05:35.874Z,62.67
2018-12-17T18:08:39.131Z,59.73
2018-12-17T18:11:42.366Z,60.60
2018-12-17T18:14:45.664Z,67.60
2018-12-17T18:17:48.870Z,78.70
2018-12-17T18:20:52.053Z,77.10
2018-12-17T18:23:55.246Z,69.63
2018-12-17T18:26:58.446Z,61.37
2018-12-17T18:30:01.729Z,64.77
2018-12-17T18:33:04.945Z,63.57
2018-12-17T18:36:08.164Z,67.23
2018-12-17T18:39:11.677Z,64.50
2018-12-17T18:42:15.890Z,61.47
2018-12-17T18:45:19.154Z,62.03
2018-12-17T18:48:22.962Z,64.33
2018-12-17T18:51:26.254Z,62.10
2018-12-17T18:54:29.546Z,64.83
2018-12-17T18:57:32.750Z,66.57
2018-12-17T19:00:35.978Z,58.17
2018-12-17T19:03:39.141Z,67.13
2018-12-17T19:06:42.488Z,61.10
2018-12-17T19:09:45.642Z,66.23
2018-12-17T19:12:49.478Z,71.00
2018-12-17T19:15:52.638Z,80.70
2018-12-17T19:18:55.869Z,65.23
2018-12-17T19:21:59.026Z,59.63
2018-12-17T19:25:02.253Z,58.27
2018-12-17T19:28:05.825Z,63.17
2018-12-17T19:31:09.302Z,68.47
2018-12-17T19:34:12.525Z,63.27
2018-12-17T19:37:15.849Z,60.53
2018-12-17T19:40:19.017Z,62.10
2018-12-17T19:43:22.246Z,66.30
2018-12-17T19:46:25.410Z,62.50
2018-12-17T19:49:28.637Z,64.30
2018-12-17T19:52:31.793Z,71.67
2018-12-17T19:55:35.021Z,70.00
2018-12-17T19:58:38.286Z,62.30
2018-12-17T20:01:41.633Z,56.77
2018-12-17T20:04:44.799Z,67.60
2018-12-17T20:07:48.122Z,66.80
2018-12-17T20:10:51.262Z,65.07
2018-12-17T20:13:55.742Z,62.07
2018-12-17T20:16:58.897Z,61.77
2018-12-17T20:20:03.268Z,66.07
2018-12-17T20:23:06.514Z,64.27
2018-12-17T20:26:09.745Z,62.33
2018-12-17T20:29:12.906Z,65.33
2018-12-17T20:32:16.133Z,63.57
2018-12-17T20:35:20.414Z,69.73
2018-12-17T20:38:23.692Z,71.50
2018-12-17T20:41:26.913Z,67.50
2018-12-17T20:44:30.143Z,63.60
2018-12-17T20:47:33.302Z,64.57
2018-12-17T20:50:36.638Z,61.67
2018-12-17T20:53:39.778Z,69.43
2018-12-17T20:56:43.838Z,61.57
2018-12-17T20:59:47.214Z,65.60
2018-12-17T21:02:50.553Z,63.90
2018-12-17T21:05:53.709Z,68.67
2018-12-17T21:08:56.930Z,65.40
2018-12-17T21:12:00.097Z,64.57
2018-12-17T21:15:03.765Z,65.10
2018-12-17T21:18:06.978Z,60.40
2018-12-17T21:21:10.225Z,63.97
2018-12-17T21:24:13.385Z,70.70
2018-12-17T21:27:16.653Z,73.70
2018-12-17T21:30:19.777Z,62.57
2018-12-17T21:33:23.008Z,71.33
2018-12-17T21:36:27.294Z,66.67
2018-12-17T21:39:30.642Z,70.23
2018-12-17T21:42:33.786Z,74.93
2018-12-17T21:45:37.182Z,68.50
2018-12-17T21:48:40.386Z,65.83
2018-12-17T21:51:43.929Z,65.60
2018-12-17T21:54:47.077Z,69.93
2018-12-17T21:57:50.154Z,65.17
2018-12-17T22:00:53.313Z,64.50
2018-12-17T22:03:56.657Z,68.90
2018-12-17T22:06:59.818Z,74.30
2018-12-17T22:10:03.593Z,62.30
2018-12-17T22:13:06.816Z,68.17
2018-12-17T22:16:11.732Z,72.87
2018-12-17T22:19:15.068Z,68.23
2018-12-17T22:22:18.381Z,71.30
2018-12-17T22:25:21.537Z,70.73
2018-12-17T22:28:24.887Z,69.67
2018-12-17T22:31:28.141Z,69.30
2018-12-17T22:34:32.385Z,68.53
2018-12-17T22:37:35.525Z,70.87
2018-12-17T22:40:39.273Z,68.80
2018-12-17T22:43:42.452Z,67.17
2018-12-17T22:46:45.793Z,64.30
2018-12-17T22:49:48.942Z,69.90
2018-12-17T22:52:52.197Z,64.90
2018-12-17T22:55:55.417Z,65.50
2018-12-17T22:58:58.884Z,77.37
2018-12-17T23:02:02.030Z,71.73
2018-12-17T23:05:05.785Z,71.07
2018-12-17T23:08:08.926Z,63.57
2018-12-17T23:11:23.394Z,75.90
2018-12-17T23:14:37.849Z,76.80
2018-12-17T23:17:41.561Z,72.47
2018-12-17T23:20:44.749Z,64.93
2018-12-17T23:23:49.996Z,73.70
2018-12-17T23:26:53.202Z,68.30
2018-12-17T23:29:56.381Z,76.40
2018-12-17T23:32:59.581Z,88.20
2018-12-17T23:36:02.706Z,72.30
2018-12-17T23:39:07.006Z,72.13
2018-12-17T23:42:11.320Z,72.93
2018-12-17T23:45:18.813Z,72.93
2018-12-17T23:48:22.010Z,77.67
2018-12-17T23:51:25.206Z,72.83
2018-12-17T23:54:28.378Z,78.37
2018-12-17T23:57:31.603Z,76.97
